createdAt,value
2018-11-05T00:03:00.903Z,100.00
2018-11-05T00:08:05.376Z,100.00
2018-11-05T00:13:09.911Z,100.00
2018-11-05T00:18:14.952Z,100.00
2018-11-05T00:23:19.173Z,100.00
2018-11-05T00:28:23.744Z,100.00
2018-11-05T00:33:28.689Z,100.00
2018-11-05T00:38:33.377Z,100.00
2018-11-05T00:43:51.423Z,100.00
2018-11-05T00:48:56.291Z,100.00
2018-11-05T00:54:01.423Z,100.00
2018-11-05T00:59:05.969Z,100.00
2018-11-05T01:04:11.276Z,100.00
2018-11-05T01:09:17.245Z,100.00
2018-11-05T01:14:22.423Z,100.00
2018-11-05T01:19:27.054Z,100.00
2018-11-05T01:24:32.106Z,100.00
2018-11-05T01:29:36.837Z,100.00
2018-11-05T01:34:41.410Z,100.00
2018-11-05T01:39:46.656Z,100.00
2018-11-05T01:44:51.259Z,100.00
2018-11-05T01:49:55.882Z,100.00
2018-11-05T01:55:00.694Z,100.00
2018-11-05T02:00:07.170Z,100.00
2018-11-05T02:05:12.444Z,100.00
2018-11-05T02:10:19.176Z,100.00
2018-11-05T02:15:24.343Z,100.00
2018-11-05T02:20:28.696Z,100.00
2018-11-05T02:25:33.544Z,100.00
2018-11-05T02:30:37.909Z,100.00
2018-11-05T02:35:44.091Z,100.00
2018-11-05T02:40:48.555Z,100.00
2018-11-05T02:45:55.994Z,100.00
2018-11-05T02:51:03.687Z,100.00
2018-11-05T02:56:09.101Z,100.00
2018-11-05T03:01:14.173Z,100.00
2018-11-05T03:06:18.389Z,100.00
2018-11-05T03:11:23.305Z,100.00
2018-11-05T03:16:28.708Z,100.00
2018-11-05T03:21:34.365Z,100.00
2018-11-05T03:26:39.174Z,100.00
2018-11-05T03:31:43.483Z,100.00
2018-11-05T03:36:47.880Z,100.00
2018-11-05T03:41:53.440Z,100.00
2018-11-05T03:46:57.718Z,100.00
2018-11-05T03:52:02.267Z,100.00
2018-11-05T03:57:06.667Z,100.00
2018-11-05T04:02:11.145Z,100.00
2018-11-05T04:07:19.138Z,100.00
2018-11-05T04:12:23.704Z,100.00
2018-11-05T04:17:28.339Z,100.00
2018-11-05T04:22:33.111Z,100.00
2018-11-05T04:27:38.577Z,100.00
2018-11-05T04:32:44.219Z,100.00
2018-11-05T04:37:49.317Z,100.00
2018-11-05T04:42:53.925Z,100.00
2018-11-05T04:47:58.445Z,100.00
2018-11-05T04:53:02.997Z,100.00
2018-11-05T04:58:07.504Z,100.00
2018-11-05T05:03:12.019Z,100.00
2018-11-05T05:08:16.823Z,100.00
2018-11-05T05:13:21.169Z,100.00
2018-11-05T05:18:25.843Z,100.00
2018-11-05T05:29:02.756Z,100.00
2018-11-05T05:34:07.558Z,100.00
2018-11-05T05:39:12.021Z,100.00
2018-11-05T05:44:16.583Z,100.00
2018-11-05T05:49:21.293Z,100.00
2018-11-05T05:54:26.571Z,100.00
2018-11-05T05:59:31.168Z,100.00
2018-11-05T06:04:35.502Z,100.00
2018-11-05T06:09:39.985Z,100.00
2018-11-05T06:14:44.376Z,100.00
2018-11-05T06:19:48.909Z,100.00
2018-11-05T06:24:53.338Z,100.00
2018-11-05T06:29:58.049Z,100.00
2018-11-05T06:35:02.967Z,100.00
2018-11-05T06:40:08.633Z,100.00
2018-11-05T06:45:22.836Z,100.00
2018-11-05T06:50:27.602Z,100.00
2018-11-05T06:55:38.141Z,100.00
2018-11-05T07:00:42.993Z,100.00
2018-11-05T07:05:47.870Z,100.00
2018-11-05T07:10:52.613Z,100.00
2018-11-05T07:15:57.290Z,100.00
2018-11-05T07:21:01.785Z,100.00
2018-11-05T07:26:07.659Z,100.00
2018-11-05T07:31:12.187Z,100.00
2018-11-05T07:36:17.447Z,100.00
2018-11-05T07:41:22.053Z,100.00
2018-11-05T07:46:26.941Z,100.00
2018-11-05T07:51:31.388Z,100.00
2018-11-05T07:56:35.963Z,100.00
2018-11-05T08:01:40.440Z,100.00
2018-11-05T08:06:44.814Z,100.00
2018-11-05T08:11:49.293Z,100.00
2018-11-05T08:16:53.673Z,100.00
2018-11-05T08:21:58.165Z,100.00
2018-11-05T08:27:02.924Z,100.00
2018-11-05T08:32:08.455Z,100.00
2018-11-05T08:37:14.506Z,100.00
2018-11-05T08:42:19.635Z,100.00
2018-11-05T08:47:24.307Z,100.00
2018-11-05T08:58:05.627Z,99.89
2018-11-05T09:03:10.445Z,99.46
2018-11-05T09:08:15.661Z,99.73
2018-11-05T09:13:20.806Z,98.83
2018-11-05T09:18:25.363Z,98.19
2018-11-05T09:23:29.888Z,97.62
2018-11-05T09:28:34.357Z,97.84
2018-11-05T09:33:38.851Z,97.60
2018-11-05T09:38:44.521Z,97.19
2018-11-05T09:43:49.099Z,97.65
2018-11-05T09:48:53.989Z,97.38
2018-11-05T09:54:03.699Z,97.10
2018-11-05T09:59:08.693Z,95.33
2018-11-05T10:04:13.214Z,94.64
2018-11-05T10:09:18.457Z,92.86
2018-11-05T10:14:25.190Z,91.63
2018-11-05T10:19:29.785Z,90.54
2018-11-05T10:24:35.835Z,90.94
2018-11-05T10:29:41.458Z,90.82
2018-11-05T10:34:46.260Z,89.45
2018-11-05T10:39:51.216Z,89.34
2018-11-05T10:44:56.868Z,86.47
2018-11-05T10:50:01.527Z,83.54
2018-11-05T10:55:06.228Z,79.82
2018-11-05T11:00:24.516Z,78.01
2018-11-05T11:05:30.881Z,78.52
2018-11-05T11:10:35.664Z,78.58
2018-11-05T11:15:40.925Z,78.02
2018-11-05T11:20:46.168Z,78.47
2018-11-05T11:25:50.813Z,78.32
2018-11-05T11:30:56.051Z,79.52
2018-11-05T11:36:01.858Z,80.19
2018-11-05T11:41:08.025Z,81.45
2018-11-05T11:46:16.866Z,81.89
2018-11-05T11:51:22.112Z,83.23
2018-11-05T11:56:26.859Z,82.48
2018-11-05T12:01:38.140Z,83.02
2018-11-05T12:06:42.665Z,82.41
2018-11-05T12:11:48.020Z,81.58
2018-11-05T12:16:54.173Z,81.53
2018-11-05T12:21:59.197Z,81.82
2018-11-05T12:27:05.155Z,80.07
2018-11-05T12:32:11.730Z,79.32
2018-11-05T12:37:16.668Z,79.22
2018-11-05T12:42:26.554Z,79.27
2018-11-05T12:47:32.980Z,78.16
2018-11-05T12:52:44.027Z,77.72
2018-11-05T12:57:49.279Z,78.07
2018-11-05T13:03:12.444Z,78.04
2018-11-05T13:08:16.994Z,79.35
2018-11-05T13:13:27.054Z,79.52
2018-11-05T13:18:32.478Z,80.86
2018-11-05T13:23:45.206Z,81.58
2018-11-05T13:28:50.122Z,80.08
2018-11-05T13:33:57.876Z,80.67
2018-11-05T13:39:06.383Z,82.35
2018-11-05T13:44:12.380Z,80.11
2018-11-05T13:49:21.459Z,81.12
2018-11-05T13:54:29.470Z,81.43
2018-11-05T13:59:37.938Z,83.10
2018-11-05T14:04:45.290Z,83.38
2018-11-05T14:09:51.942Z,83.58
2018-11-05T14:14:57.802Z,83.56
2018-11-05T14:20:03.388Z,84.32
2018-11-05T14:25:12.326Z,85.04
2018-11-05T14:30:17.678Z,79.91
2018-11-05T14:35:22.563Z,80.80
2018-11-05T14:40:31.297Z,79.05
2018-11-05T14:45:41.073Z,77.84
2018-11-05T14:50:46.703Z,76.67
2018-11-05T14:55:51.698Z,77.38
2018-11-05T15:00:56.483Z,77.93
2018-11-05T15:06:10.731Z,77.17
2018-11-05T15:11:15.757Z,77.46
2018-11-05T15:16:29.976Z,78.53
2018-11-05T15:21:34.581Z,78.24
2018-11-05T15:26:49.094Z,77.78
2018-11-05T15:31:54.136Z,78.43
2018-11-05T15:37:08.484Z,78.49
2018-11-05T15:42:14.676Z,78.55
2018-11-05T15:47:21.246Z,78.94
2018-11-05T15:52:27.480Z,79.74
2018-11-05T15:57:32.987Z,79.91
2018-11-05T16:02:57.352Z,79.57
2018-11-05T16:08:02.746Z,80.08
2018-11-05T16:13:07.842Z,79.80
2018-11-05T16:18:17.516Z,80.08
2018-11-05T16:23:23.730Z,80.75
2018-11-05T16:28:28.371Z,80.09
2018-11-05T16:33:34.431Z,80.80
2018-11-05T16:38:39.873Z,80.00
2018-11-05T16:43:50.912Z,80.89
2018-11-05T16:48:55.854Z,80.65
2018-11-05T16:54:06.251Z,81.31
2018-11-05T16:59:11.435Z,81.52
2018-11-05T17:04:27.504Z,80.73
2018-11-05T17:09:41.087Z,81.23
2018-11-05T17:14:48.266Z,81.23
2018-11-05T17:19:55.238Z,81.29
2018-11-05T17:25:09.103Z,81.80
2018-11-05T17:30:18.238Z,81.73
2018-11-05T17:35:29.159Z,81.61
2018-11-05T17:40:36.654Z,82.31
2018-11-05T17:45:48.031Z,82.05
2018-11-05T17:51:07.974Z,81.69
2018-11-05T17:56:16.778Z,81.73
2018-11-05T18:06:25.677Z,81.80
2018-11-05T18:11:34.536Z,82.07
2018-11-05T18:16:48.168Z,82.16
2018-11-05T18:27:27.356Z,81.86
2018-11-05T18:38:28.944Z,81.41
2018-11-05T18:43:57.500Z,82.28
2018-11-05T18:49:14.639Z,81.84
2018-11-05T19:21:11.760Z,82.97
2018-11-05T19:26:19.091Z,83.61
2018-11-05T19:31:27.476Z,82.79
2018-11-05T19:36:33.406Z,83.46
2018-11-05T19:41:40.773Z,83.05
2018-11-05T19:46:47.015Z,83.07
2018-11-05T19:51:52.578Z,84.12
2018-11-05T19:57:18.216Z,84.29
2018-11-05T20:02:41.852Z,84.13
2018-11-05T20:07:49.386Z,83.95
2018-11-05T20:13:08.634Z,83.74
2018-11-05T20:18:25.851Z,83.70
2018-11-05T20:23:34.982Z,83.63
2018-11-05T20:28:46.816Z,83.63
2018-11-05T20:33:52.171Z,84.37
2018-11-05T20:38:59.613Z,84.04
2018-11-05T20:44:22.886Z,84.60
2018-11-05T20:49:27.652Z,84.64
2018-11-05T20:54:32.464Z,84.49
2018-11-05T20:59:37.164Z,84.68
2018-11-05T21:04:43.088Z,84.45
2018-11-05T21:09:47.580Z,84.72
2018-11-05T21:14:52.516Z,84.70
2018-11-05T21:19:57.746Z,85.22
2018-11-05T21:25:03.143Z,85.44
2018-11-05T21:30:10.034Z,84.82
2018-11-05T21:35:15.813Z,84.94
2018-11-05T21:40:20.802Z,84.86
2018-11-05T21:45:25.284Z,84.20
2018-11-05T21:50:29.844Z,84.80
2018-11-05T21:55:34.710Z,84.97
2018-11-05T22:00:40.051Z,85.52
2018-11-05T22:05:44.423Z,86.19
2018-11-05T22:10:50.461Z,86.48
2018-11-05T22:15:54.950Z,86.30
2018-11-05T22:20:59.682Z,86.96
2018-11-05T22:26:04.142Z,87.47
2018-11-05T22:31:08.858Z,87.38
2018-11-05T22:36:13.485Z,87.49
2018-11-05T22:41:17.883Z,87.69
2018-11-05T22:46:22.147Z,88.26
2018-11-05T22:51:27.076Z,88.10
2018-11-05T22:56:35.751Z,89.00
2018-11-05T23:01:46.127Z,88.46
2018-11-05T23:06:52.506Z,88.52
2018-11-05T23:11:57.401Z,88.59
2018-11-05T23:17:02.965Z,88.56
2018-11-05T23:22:07.777Z,89.20
2018-11-05T23:27:12.318Z,88.44
2018-11-05T23:32:16.791Z,88.60
2018-11-05T23:37:21.389Z,88.95
2018-11-05T23:42:44.377Z,88.85
2018-11-05T23:47:49.908Z,88.68
2018-11-05T23:52:59.764Z,88.99
2018-11-05T23:58:05.171Z,88.78
